עמוד ראשי
METAR-TAF:

METAR-TAF

שדות תעופה :

פנאפוטי, טובאלו

קו רוחב: 08-31S, קו אורך: 179-13E, גובה: 1מטר

תצפית מזג אוויר נוכחית

הדו"ח נערך לפני 1 שעות ו 6דקות, בשעה 11:00 UTC
רוח 6קשר מכיוון צפון
טמפרטורת 28 צלסיוס
לחות 84%
לחץ 1011 hPa
ראות 10 קילומטר או יותר
מעט עננים בגובה 2000רגל
עננים בינוניים בגובה 30000רגל

METAR: NGFU 151100Z 36006KT 9999 FEW020 BKN300 28/25 Q1011

זמן: 00:06 (12:06 UTC)

תחזית

הדו"ח נערך לפני 1 שעות ו 1דקות, בשעה 11:05 UTC
תחזית בתוקף מ 15 ב 12 UTC עד 16 ב 12 UTC
רוח 5קשר מכיוון צפון-מזרח
ראות 10 קילומטר או יותר
מעט עננים בגובה 2000רגל
עננים פזורים בגובה 10000רגל
הסתברות 40% :
זמנית מ -
15 ב 12 UTC עד 15 ב 24 UTC
ראות: 5000מטר
מעט עננים בגובה 1600רגל , קומולונימבוס.
סופת רעמים, גשם
זמנית מ -
16 ב 00 UTC עד 16 ב 12 UTC
ראות: 3000מטר
עננים בינוניים בגובה 1200רגל
עננים פזורים בגובה 1800רגל , קומולונימבוס.
סופת רעמים, גשם כבד,

TAF: NGFU 151105Z 1512/1612 04005KT 9999 FEW020 SCT100 PROB40 TEMPO 1512/1524 5000 TSRA FEW016CB TEMPO 1600/1612 3000 +TSRA BKN012 SCT018CB

תצפיות ותחזיות מזג אוויר לגבי יותר מ- 4,000 שדות תעופה ברחבי העולם. דוחות METAR ו- TAF.

התחנות הזמינות מסומנות בנקודות צהובות ואדומות על גבי המפה.

העבר את העכבר לנקודה הצבעונית על מנת לראות את שם התחנה.

לאחר מכן, לחץ כדי לראות את תוכן ואת תחזיות מזג האוויר.

כדי לשנות את המפה: לחץ על הכפתורים הירוקים עם הפלוס השחור כדי להתקרב; על הכפתור הירוק עם המקף כדי להתרחק; או בחיצים הירוקים למפות סמוכות.


METAR-TAF: